Diggs, Virginia
Current Conditions -  °F | °C
As of 8:55 PM on Monday 20 Oct 2014 (Local Time) from KW75 Reporting Station
Clear Clear  
Wind Chill: 53°   Ceiling: Unl
Heat Index: 53°   Visibility: 10mi
Dew Point: 45°   Wind: 0mph
Humidity: 75%   Direction: NA
Pressure: 29.99"   Gusts: NA
Location:  37.44°N, 76.27°W
Report Text: KW75 210055Z AUTO 00000KT 10SM CLR 11/07 A2999 RMK AO1 T01140071
Loading
Personal Weather Stations






























Interactive Weather Map
Tropical Storm Tracking
New forecast layout! Learn more

10-Day Weather Forecast

Advertisements
Track Severe Weather on mobile